createdAt,value
2018-06-03T00:00:59.345Z,13.62
2018-06-03T00:01:59.083Z,13.62
2018-06-03T00:02:59.072Z,13.66
2018-06-03T00:03:58.808Z,13.68
2018-06-03T00:04:59.065Z,13.54
2018-06-03T00:05:59.074Z,13.54
2018-06-03T00:06:59.313Z,13.5
2018-06-03T00:07:59.044Z,13.5
2018-06-03T00:08:59.295Z,13.47
2018-06-03T00:09:58.775Z,13.55
2018-06-03T00:10:59.025Z,13.44
2018-06-03T00:11:59.017Z,13.42
2018-06-03T00:12:59.277Z,13.47
2018-06-03T00:13:59.271Z,13.44
2018-06-03T00:14:59.257Z,13.42
2018-06-03T00:15:58.733Z,13.45
2018-06-03T00:16:59.532Z,13.42
2018-06-03T00:17:58.984Z,13.48
2018-06-03T00:18:59.234Z,13.42
2018-06-03T00:19:58.976Z,13.45
2018-06-03T00:20:59.222Z,13.51
2018-06-03T00:21:59.215Z,13.4
2018-06-03T00:22:59.211Z,13.37
2018-06-03T00:23:59.225Z,13.31
2018-06-03T00:24:59.194Z,13.32
2018-06-03T00:25:58.933Z,13.32
2018-06-03T00:26:59.209Z,13.36
2018-06-03T00:27:59.176Z,13.31
2018-06-03T00:28:59.178Z,13.32
2018-06-03T00:29:59.159Z,13.25
2018-06-03T00:30:58.900Z,13.27
2018-06-03T00:31:59.152Z,13.27
2018-06-03T00:32:58.625Z,13.24
2018-06-03T00:33:59.140Z,13.27
2018-06-03T00:34:58.615Z,13.25
2018-06-03T00:35:59.126Z,13.2
2018-06-03T00:36:58.858Z,13.17
2018-06-03T00:37:59.131Z,13.27
2018-06-03T00:38:59.106Z,13.2
2018-06-03T00:39:59.100Z,13.21
2018-06-03T00:40:59.105Z,13.28
2018-06-03T00:41:58.826Z,13.21
2018-06-03T00:42:58.832Z,13.17
2018-06-03T00:43:58.557Z,13.24
2018-06-03T00:44:58.826Z,13.2
2018-06-03T00:45:58.824Z,13.21
2018-06-03T00:46:59.054Z,13.19
2018-06-03T00:47:58.528Z,13.28
2018-06-03T00:48:59.047Z,13.2
2018-06-03T00:49:58.776Z,13.35
2018-06-03T00:50:58.768Z,13.24
2018-06-03T00:51:59.022Z,13.21
2018-06-03T00:52:59.018Z,13.21
2018-06-03T00:53:58.751Z,13.21
2018-06-03T00:54:59.001Z,13.35
2018-06-03T00:55:58.999Z,13.28
2018-06-03T00:56:58.735Z,13.2
2018-06-03T00:57:58.724Z,13.28
2018-06-03T00:58:58.720Z,13.31
2018-06-03T00:59:58.451Z,13.31
2018-06-03T01:00:58.447Z,13.32
2018-06-03T01:01:58.696Z,13.31
2018-06-03T01:02:58.431Z,13.28
2018-06-03T01:03:58.949Z,13.35
2018-06-03T01:04:58.421Z,13.29
2018-06-03T01:05:58.673Z,13.29
2018-06-03T01:06:58.667Z,13.27
2018-06-03T01:07:58.915Z,13.28
2018-06-03T01:08:58.915Z,13.4
2018-06-03T01:09:58.388Z,13.37
2018-06-03T01:10:58.378Z,13.36
2018-06-03T01:11:58.632Z,13.44
2018-06-03T01:12:58.885Z,13.4
2018-06-03T01:13:58.880Z,13.47
2018-06-03T01:14:58.610Z,13.47
2018-06-03T01:15:58.604Z,13.45
2018-06-03T01:16:58.855Z,13.44
2018-06-03T01:17:58.593Z,13.48
2018-06-03T01:18:58.325Z,13.47
2018-06-03T01:19:58.583Z,13.48
2018-06-03T01:20:58.829Z,13.53
2018-06-03T01:21:58.572Z,13.55
2018-06-03T01:22:58.818Z,13.45
2018-06-03T01:23:58.811Z,13.45
2018-06-03T01:24:58.545Z,13.47
2018-06-03T01:25:58.846Z,13.44
2018-06-03T01:26:58.797Z,13.53
2018-06-03T01:27:58.528Z,13.44
2018-06-03T01:28:58.780Z,13.54
2018-06-03T01:29:58.256Z,13.45
2018-06-03T01:30:58.510Z,13.42
2018-06-03T01:31:58.502Z,13.48
2018-06-03T01:32:58.499Z,13.45
2018-06-03T01:33:58.761Z,13.44
2018-06-03T01:34:58.741Z,13.48
2018-06-03T01:35:58.743Z,13.45
2018-06-03T01:36:58.471Z,13.39
2018-06-03T01:37:58.723Z,13.45
2018-06-03T01:38:58.712Z,13.5
2018-06-03T01:39:58.711Z,13.45
2018-06-03T01:40:58.456Z,13.35
2018-06-03T01:41:58.706Z,13.51
2018-06-03T01:42:58.687Z,13.47
2018-06-03T01:43:58.422Z,13.53
2018-06-03T01:44:58.424Z,13.51
2018-06-03T01:45:58.409Z,13.5
2018-06-03T01:46:58.147Z,13.55
2018-06-03T01:47:58.655Z,13.55
2018-06-03T01:48:58.335Z,13.57
2018-06-03T01:49:58.395Z,13.62
2018-06-03T01:50:58.382Z,13.58
2018-06-03T01:51:58.632Z,13.73
2018-06-03T01:52:58.366Z,13.68
2018-06-03T01:53:58.616Z,13.63
2018-06-03T01:54:58.352Z,13.69
2018-06-03T01:55:58.352Z,13.62
2018-06-03T01:56:58.085Z,13.78
2018-06-03T01:57:58.594Z,13.57
2018-06-03T01:58:58.591Z,13.6
2018-06-03T01:59:58.581Z,13.66
2018-06-03T02:00:58.059Z,13.73
2018-06-03T02:01:58.316Z,13.68
2018-06-03T02:02:58.304Z,13.68
2018-06-03T02:03:58.557Z,13.73
2018-06-03T02:04:58.290Z,13.69
2018-06-03T02:05:58.029Z,13.69
2018-06-03T02:06:58.536Z,13.75
2018-06-03T02:07:58.529Z,13.79
2018-06-03T02:08:58.528Z,13.72
2018-06-03T02:09:58.519Z,13.79
2018-06-03T02:10:58.253Z,13.68
2018-06-03T02:11:58.506Z,13.73
2018-06-03T02:12:58.461Z,13.68
2018-06-03T02:13:58.494Z,13.55
2018-06-03T02:14:58.225Z,13.55
2018-06-03T02:15:58.221Z,13.5
2018-06-03T02:16:58.475Z,13.53
2018-06-03T02:17:58.207Z,13.44
2018-06-03T02:18:58.203Z,13.47
2018-06-03T02:19:58.453Z,13.44
2018-06-03T02:20:58.455Z,13.32
2018-06-03T02:21:58.183Z,13.25
2018-06-03T02:22:57.921Z,13.28
2018-06-03T02:23:58.172Z,13.2
2018-06-03T02:24:58.167Z,13.2
2018-06-03T02:25:58.171Z,13.19
2018-06-03T02:26:58.150Z,13.1
2018-06-03T02:27:58.403Z,13.13
2018-06-03T02:28:58.138Z,13.09
2018-06-03T02:29:58.389Z,12.99
2018-06-03T02:30:58.390Z,12.94
2018-06-03T02:31:58.119Z,13.01
2018-06-03T02:32:58.117Z,12.94
2018-06-03T02:33:58.367Z,13.03
2018-06-03T02:34:58.104Z,12.91
2018-06-03T02:35:58.105Z,12.94
2018-06-03T02:36:58.348Z,12.96
2018-06-03T02:37:58.387Z,12.94
2018-06-03T02:38:58.335Z,12.95
2018-06-03T02:39:58.326Z,12.95
2018-06-03T02:40:58.322Z,12.92
2018-06-03T02:41:58.066Z,12.81
2018-06-03T02:42:57.788Z,12.89
2018-06-03T02:43:57.782Z,12.92
2018-06-03T02:44:58.318Z,12.86
2018-06-03T02:45:58.034Z,12.8
2018-06-03T02:46:58.303Z,12.78
2018-06-03T02:47:58.016Z,12.71
2018-06-03T02:48:58.007Z,12.73
2018-06-03T02:49:58.274Z,12.71
2018-06-03T02:50:58.254Z,12.7
2018-06-03T02:51:58.251Z,12.62
2018-06-03T02:52:58.237Z,12.61
2018-06-03T02:53:58.228Z,12.59
2018-06-03T02:54:58.234Z,12.61
2018-06-03T02:55:57.975Z,12.59
2018-06-03T02:56:57.959Z,12.59
2018-06-03T02:57:57.951Z,12.62
2018-06-03T02:58:58.198Z,12.65
2018-06-03T02:59:58.187Z,12.62
2018-06-03T03:00:58.186Z,12.61
2018-06-03T03:01:58.174Z,12.51
2018-06-03T03:02:57.651Z,12.52
2018-06-03T03:03:57.647Z,12.61
2018-06-03T03:04:58.156Z,12.53
2018-06-03T03:05:57.889Z,12.61
2018-06-03T03:06:57.908Z,12.51
2018-06-03T03:07:57.873Z,12.56
2018-06-03T03:08:57.876Z,12.41
2018-06-03T03:09:57.858Z,12.4
2018-06-03T03:10:57.857Z,12.37
2018-06-03T03:11:58.089Z,12.47
2018-06-03T03:12:58.104Z,12.56
2018-06-03T03:13:57.837Z,12.48
2018-06-03T03:14:57.832Z,12.47
2018-06-03T03:15:58.083Z,12.53
2018-06-03T03:16:58.067Z,12.52
2018-06-03T03:17:58.089Z,12.52
2018-06-03T03:18:57.798Z,12.62
2018-06-03T03:19:57.789Z,12.61
2018-06-03T03:20:57.525Z,12.65
2018-06-03T03:21:58.042Z,12.61
2018-06-03T03:22:58.031Z,12.61
2018-06-03T03:23:57.762Z,12.62
2018-06-03T03:24:58.013Z,12.56
2018-06-03T03:25:57.746Z,12.62
2018-06-03T03:26:57.741Z,12.62
2018-06-03T03:27:58.012Z,12.58
2018-06-03T03:28:57.728Z,12.59
2018-06-03T03:29:57.719Z,12.65
2018-06-03T03:30:57.457Z,12.66
2018-06-03T03:31:57.968Z,12.63
2018-06-03T03:32:57.963Z,12.65
2018-06-03T03:33:57.956Z,12.7
2018-06-03T03:34:57.949Z,12.74
2018-06-03T03:35:57.935Z,12.71
2018-06-03T03:36:57.671Z,12.73
2018-06-03T03:37:57.928Z,12.66
2018-06-03T03:38:57.931Z,12.74
2018-06-03T03:39:57.651Z,12.73
2018-06-03T03:40:57.642Z,12.78
2018-06-03T03:41:57.638Z,12.76
2018-06-03T03:42:57.629Z,12.83
2018-06-03T03:43:57.626Z,12.92
2018-06-03T03:44:57.875Z,12.91
2018-06-03T03:45:57.349Z,12.86
2018-06-03T03:46:57.606Z,12.92
2018-06-03T03:47:57.897Z,12.92
2018-06-03T03:48:57.587Z,12.95
2018-06-03T03:49:57.844Z,12.96
2018-06-03T03:50:57.315Z,12.94
2018-06-03T03:51:57.824Z,12.94
2018-06-03T03:52:57.820Z,13.02
2018-06-03T03:53:57.830Z,12.98
2018-06-03T03:54:57.824Z,13.13
2018-06-03T03:55:57.542Z,13.06
2018-06-03T03:56:57.531Z,13.13
2018-06-03T03:57:57.791Z,13.1
2018-06-03T03:58:57.781Z,13.13
2018-06-03T03:59:57.771Z,13.2
2018-06-03T04:00:57.245Z,13.21
2018-06-03T04:01:57.496Z,13.27
2018-06-03T04:02:57.746Z,13.2
2018-06-03T04:03:57.488Z,13.21
2018-06-03T04:04:57.476Z,13.21
2018-06-03T04:05:57.727Z,13.24
2018-06-03T04:06:57.724Z,13.36
2018-06-03T04:07:57.716Z,13.27
2018-06-03T04:08:57.450Z,13.35
2018-06-03T04:09:57.441Z,13.32
2018-06-03T04:10:57.436Z,13.45
2018-06-03T04:11:57.691Z,13.4
2018-06-03T04:12:57.684Z,13.42
2018-06-03T04:13:57.683Z,13.51
2018-06-03T04:14:57.669Z,13.57
2018-06-03T04:15:57.403Z,13.76
2018-06-03T04:16:57.654Z,13.94
2018-06-03T04:17:57.645Z,13.97
2018-06-03T04:18:57.382Z,14.09
2018-06-03T04:19:57.117Z,14.2
2018-06-03T04:20:57.634Z,14.27
2018-06-03T04:21:57.388Z,14.33
2018-06-03T04:22:57.355Z,14.26
2018-06-03T04:23:57.607Z,14.31
2018-06-03T04:24:57.607Z,14.31
2018-06-03T04:25:57.340Z,14.36
2018-06-03T04:26:57.598Z,14.41
2018-06-03T04:27:57.593Z,14.49
2018-06-03T04:28:57.797Z,14.48
2018-06-03T04:29:57.574Z,14.57
2018-06-03T04:30:57.571Z,14.63
2018-06-03T04:31:57.305Z,14.74
2018-06-03T04:32:57.552Z,14.85
2018-06-03T04:33:57.556Z,14.85
2018-06-03T04:34:57.284Z,14.83
2018-06-03T04:35:57.606Z,14.8
2018-06-03T04:36:57.270Z,14.89
2018-06-03T04:37:57.270Z,14.94
2018-06-03T04:38:57.521Z,15.02
2018-06-03T04:39:57.525Z,15.13
2018-06-03T04:40:56.994Z,15.26
2018-06-03T04:41:57.248Z,15.41
2018-06-03T04:42:57.498Z,15.52
2018-06-03T04:43:57.491Z,15.7
2018-06-03T04:44:57.488Z,15.73
2018-06-03T04:45:57.490Z,15.91
2018-06-03T04:46:57.480Z,15.92
2018-06-03T04:47:57.230Z,16.04
2018-06-03T04:48:57.466Z,16.06
2018-06-03T04:49:57.461Z,16.16
2018-06-03T04:50:56.939Z,16.27
2018-06-03T04:51:57.192Z,16.34
2018-06-03T04:52:57.459Z,16.42
2018-06-03T04:53:57.204Z,16.47
2018-06-03T04:54:57.188Z,16.44
2018-06-03T04:55:57.438Z,16.69
2018-06-03T04:56:57.436Z,16.85
2018-06-03T04:57:57.407Z,16.99
2018-06-03T04:58:57.422Z,17.21
2018-06-03T04:59:57.419Z,17.5
2018-06-03T05:00:57.414Z,17.69
2018-06-03T05:01:57.414Z,17.98
2018-06-03T05:02:57.401Z,17.99
2018-06-03T05:03:57.401Z,18.06
2018-06-03T05:04:57.136Z,18.17
2018-06-03T05:05:57.133Z,18.2
2018-06-03T05:06:57.387Z,18.1
2018-06-03T05:07:57.124Z,18.05
2018-06-03T05:08:57.135Z,18.1
2018-06-03T05:09:57.115Z,18.02
2018-06-03T05:10:57.377Z,18.02
2018-06-03T05:11:57.388Z,18.06
2018-06-03T05:12:57.364Z,18.02
2018-06-03T05:13:57.122Z,18.01
2018-06-03T05:14:57.371Z,17.99
2018-06-03T05:15:56.843Z,18.02
2018-06-03T05:16:57.113Z,17.96
2018-06-03T05:17:57.090Z,17.96
2018-06-03T05:18:57.343Z,17.92
2018-06-03T05:19:57.339Z,17.94
2018-06-03T05:20:56.822Z,17.96
2018-06-03T05:21:57.337Z,17.94
2018-06-03T05:22:57.076Z,17.99
2018-06-03T05:23:57.078Z,17.98
2018-06-03T05:24:57.065Z,17.96
2018-06-03T05:25:57.065Z,17.94
2018-06-03T05:26:57.063Z,17.95
2018-06-03T05:27:57.316Z,18.08
2018-06-03T05:28:57.335Z,18.03
2018-06-03T05:29:57.054Z,18.21
2018-06-03T05:30:57.305Z,18.24
2018-06-03T05:31:57.305Z,18.29
2018-06-03T05:32:57.043Z,18.39
2018-06-03T05:33:57.265Z,18.53
2018-06-03T05:34:56.779Z,18.53
2018-06-03T05:35:57.296Z,18.54
2018-06-03T05:36:57.298Z,18.5
2018-06-03T05:37:57.032Z,18.54
2018-06-03T05:38:57.299Z,18.5
2018-06-03T05:39:57.488Z,18.47
2018-06-03T05:40:57.028Z,18.57
2018-06-03T05:41:56.761Z,18.5
2018-06-03T05:42:57.274Z,18.57
2018-06-03T05:43:57.015Z,18.66
2018-06-03T05:44:57.011Z,18.63
2018-06-03T05:45:57.009Z,18.65
2018-06-03T05:46:57.266Z,18.68
2018-06-03T05:47:57.260Z,18.74
2018-06-03T05:48:57.004Z,18.9
2018-06-03T05:49:57.258Z,18.89
2018-06-03T05:50:56.994Z,18.91
2018-06-03T05:51:56.735Z,18.97
2018-06-03T05:52:57.250Z,19
2018-06-03T05:53:56.991Z,19.05
2018-06-03T05:54:56.985Z,19.06
2018-06-03T05:55:57.033Z,19.02
2018-06-03T05:56:56.981Z,19.05
2018-06-03T05:57:56.981Z,19.02
2018-06-03T05:58:56.997Z,19.07
2018-06-03T05:59:57.234Z,19.05
2018-06-03T06:00:57.233Z,19.06
2018-06-03T06:01:56.991Z,18.93
2018-06-03T06:02:56.970Z,18.96
2018-06-03T06:03:56.967Z,19
2018-06-03T06:04:57.235Z,18.99
2018-06-03T06:05:57.223Z,18.97
2018-06-03T06:06:56.978Z,18.96
2018-06-03T06:07:57.221Z,18.97
2018-06-03T06:08:56.993Z,18.93
2018-06-03T06:09:56.955Z,18.93
2018-06-03T06:10:57.212Z,18.9
2018-06-03T06:11:57.218Z,18.89
2018-06-03T06:12:57.204Z,18.96
2018-06-03T06:13:56.988Z,18.97
2018-06-03T06:14:56.952Z,19.02
2018-06-03T06:15:57.206Z,19.07
2018-06-03T06:16:56.944Z,19.12
2018-06-03T06:17:57.200Z,19.2
2018-06-03T06:18:57.207Z,19.2
2018-06-03T06:19:57.194Z,19.31
2018-06-03T06:20:56.946Z,19.34
2018-06-03T06:21:57.196Z,19.38
2018-06-03T06:22:57.190Z,19.49
2018-06-03T06:23:57.505Z,19.52
2018-06-03T06:24:57.187Z,19.49
2018-06-03T06:25:56.929Z,19.47
2018-06-03T06:26:56.667Z,19.5
2018-06-03T06:27:57.088Z,19.49
2018-06-03T06:28:56.928Z,19.53
2018-06-03T06:29:57.181Z,19.42
2018-06-03T06:30:57.178Z,19.47
2018-06-03T06:31:57.185Z,19.47
2018-06-03T06:32:57.541Z,19.47
2018-06-03T06:33:56.919Z,19.45
2018-06-03T06:34:56.916Z,19.46
2018-06-03T06:35:57.174Z,19.49
2018-06-03T06:36:57.170Z,19.65
2018-06-03T06:37:57.168Z,19.7
2018-06-03T06:38:56.933Z,20.01
2018-06-03T06:39:57.184Z,20.72
2018-06-03T06:40:56.651Z,21.37
2018-06-03T06:41:56.649Z,22.12
2018-06-03T06:42:57.169Z,22.96
2018-06-03T06:43:56.654Z,23.62
2018-06-03T06:44:56.647Z,24.14
2018-06-03T06:45:57.163Z,24.48
2018-06-03T06:46:56.906Z,24.85
2018-06-03T06:47:57.168Z,25.3
2018-06-03T06:48:57.171Z,25.66
2018-06-03T06:49:56.916Z,25.81
2018-06-03T06:50:57.194Z,25.97
2018-06-03T06:51:57.343Z,26.31
2018-06-03T06:52:57.176Z,26.63
2018-06-03T06:53:57.180Z,26.91
2018-06-03T06:54:57.184Z,27.12
2018-06-03T06:55:57.184Z,27.42
2018-06-03T06:56:56.924Z,27.76
2018-06-03T06:57:56.927Z,28.03
2018-06-03T06:58:57.190Z,28.18
2018-06-03T06:59:56.933Z,28.23
2018-06-03T07:00:56.936Z,28.23
2018-06-03T07:01:56.956Z,28.21
2018-06-03T07:02:57.203Z,28.46
2018-06-03T07:03:56.949Z,28.6
2018-06-03T07:04:56.738Z,28.63
2018-06-03T07:05:56.958Z,28.73
2018-06-03T07:06:56.961Z,28.88
2018-06-03T07:07:56.969Z,29.1
2018-06-03T07:08:57.229Z,29.26
2018-06-03T07:09:57.233Z,29.48
2018-06-03T07:10:57.234Z,29.7
2018-06-03T07:11:57.248Z,29.88
2018-06-03T07:12:57.245Z,30.1
2018-06-03T07:13:57.250Z,30.45
2018-06-03T07:14:56.739Z,30.77
2018-06-03T07:15:57.276Z,30.89
2018-06-03T07:16:57.263Z,31.22
2018-06-03T07:17:57.013Z,31.44
2018-06-03T07:18:56.760Z,31.78
2018-06-03T07:19:57.040Z,31.97
2018-06-03T07:20:56.774Z,32.06
2018-06-03T07:21:57.355Z,32.01
2018-06-03T07:22:57.301Z,31.77
2018-06-03T07:23:57.054Z,31.77
2018-06-03T07:24:57.060Z,31.8
2018-06-03T07:25:57.064Z,31.52
2018-06-03T07:26:57.074Z,30.97
2018-06-03T07:27:57.076Z,30.19
2018-06-03T07:28:57.082Z,29.33
2018-06-03T07:29:57.350Z,28.41
2018-06-03T07:30:57.102Z,27.74
2018-06-03T07:31:57.110Z,27.08
2018-06-03T07:32:57.117Z,26.86
2018-06-03T07:33:57.111Z,27.05
2018-06-03T07:34:57.380Z,27.64
2018-06-03T07:35:57.413Z,28.21
2018-06-03T07:36:57.132Z,28.9
2018-06-03T07:37:57.133Z,29.54
2018-06-03T07:38:57.401Z,30
2018-06-03T07:39:57.405Z,30.22
2018-06-03T07:40:57.418Z,30.22
2018-06-03T07:41:57.159Z,29.79
2018-06-03T07:42:57.422Z,29.24
2018-06-03T07:43:57.434Z,28.55
2018-06-03T07:44:57.178Z,28.03
2018-06-03T07:45:56.927Z,27.38
2018-06-03T07:46:56.931Z,26.75
2018-06-03T07:47:57.454Z,26
2018-06-03T07:48:57.198Z,25.54
2018-06-03T07:49:57.211Z,25.08
2018-06-03T07:50:57.469Z,24.56
2018-06-03T07:51:57.493Z,24.29
2018-06-03T07:52:57.478Z,24.09
2018-06-03T07:53:57.486Z,24.02
2018-06-03T07:54:57.504Z,24.33
2018-06-03T07:55:57.492Z,24.85
2018-06-03T07:56:57.499Z,25.05
2018-06-03T07:57:57.240Z,25.14
2018-06-03T07:58:57.501Z,25.08
2018-06-03T07:59:57.239Z,25.04
2018-06-03T08:00:57.246Z,24.89
2018-06-03T08:01:57.519Z,24.63
2018-06-03T08:02:57.513Z,24.51
2018-06-03T08:03:57.257Z,24.3
2018-06-03T08:04:57.258Z,23.93
2018-06-03T08:05:57.609Z,23.66
2018-06-03T08:06:57.010Z,23.62
2018-06-03T08:07:57.528Z,23.42
2018-06-03T08:08:57.523Z,23.37
2018-06-03T08:09:57.290Z,23.26
2018-06-03T08:10:57.268Z,23.01
2018-06-03T08:11:57.273Z,22.89
2018-06-03T08:12:57.535Z,22.7
2018-06-03T08:13:57.277Z,22.6
2018-06-03T08:14:57.536Z,22.64
2018-06-03T08:15:57.280Z,22.66
2018-06-03T08:16:57.288Z,22.88
2018-06-03T08:17:57.300Z,23.19
2018-06-03T08:18:57.551Z,23.5
2018-06-03T08:19:57.546Z,23.63
2018-06-03T08:20:57.547Z,23.87
2018-06-03T08:21:57.296Z,23.82
2018-06-03T08:22:57.403Z,23.71
2018-06-03T08:23:57.561Z,23.59
2018-06-03T08:24:57.306Z,23.44
2018-06-03T08:25:57.045Z,23.35
2018-06-03T08:26:57.564Z,23.19
2018-06-03T08:27:57.321Z,23.03
2018-06-03T08:28:57.588Z,22.88
2018-06-03T08:29:57.798Z,22.78
2018-06-03T08:30:57.308Z,22.52
2018-06-03T08:31:57.565Z,22.38
2018-06-03T08:32:57.309Z,22.3
2018-06-03T08:33:57.568Z,22.33
2018-06-03T08:34:57.573Z,22.46
2018-06-03T08:35:57.314Z,22.66
2018-06-03T08:36:57.314Z,22.75
2018-06-03T08:37:57.336Z,22.75
2018-06-03T08:38:57.584Z,22.94
2018-06-03T08:39:57.592Z,22.81
2018-06-03T08:40:57.324Z,22.92
2018-06-03T08:41:57.320Z,23
2018-06-03T08:42:57.587Z,23.12
2018-06-03T08:43:57.328Z,23.1
2018-06-03T08:44:57.331Z,23.04
2018-06-03T08:45:57.588Z,23.14
2018-06-03T08:46:57.583Z,23.04
2018-06-03T08:47:57.586Z,23.18
2018-06-03T08:48:57.585Z,23.32
2018-06-03T08:49:57.603Z,23.35
2018-06-03T08:50:57.330Z,23.29
2018-06-03T08:51:57.328Z,23.42
2018-06-03T08:52:57.331Z,23.44
2018-06-03T08:53:57.610Z,23.42
2018-06-03T08:54:57.075Z,23.45
2018-06-03T08:55:57.337Z,23.44
2018-06-03T08:56:57.339Z,23.45
2018-06-03T08:57:57.604Z,23.64
2018-06-03T08:58:57.340Z,23.7
2018-06-03T08:59:57.343Z,23.81
2018-06-03T09:00:57.601Z,23.79
2018-06-03T09:01:57.350Z,23.87
2018-06-03T09:02:57.603Z,23.92
2018-06-03T09:03:57.626Z,23.77
2018-06-03T09:04:57.090Z,23.63
2018-06-03T09:05:57.350Z,23.66
2018-06-03T09:06:57.424Z,23.66
2018-06-03T09:07:57.351Z,23.48
2018-06-03T09:08:57.620Z,23.48
2018-06-03T09:09:57.362Z,23.32
2018-06-03T09:10:57.374Z,23.16
2018-06-03T09:11:57.370Z,23.14
2018-06-03T09:12:57.620Z,22.97
2018-06-03T09:13:57.363Z,23.03
2018-06-03T09:14:57.360Z,22.91
2018-06-03T09:15:57.365Z,22.92
2018-06-03T09:16:57.622Z,22.92
2018-06-03T09:17:57.367Z,22.86
2018-06-03T09:18:57.443Z,22.89
2018-06-03T09:19:57.627Z,23.06
2018-06-03T09:20:57.634Z,23.29
2018-06-03T09:21:57.631Z,23.4
2018-06-03T09:22:57.115Z,23.57
2018-06-03T09:23:57.371Z,23.81
2018-06-03T09:24:57.380Z,24.04
2018-06-03T09:25:57.378Z,24.21
2018-06-03T09:26:57.377Z,24.33
2018-06-03T09:27:57.384Z,24.54
2018-06-03T09:28:57.650Z,24.64
2018-06-03T09:29:57.126Z,24.7
2018-06-03T09:30:57.389Z,24.45
2018-06-03T09:31:57.386Z,24.34
2018-06-03T09:32:57.627Z,24.14
2018-06-03T09:33:57.646Z,23.9
2018-06-03T09:34:57.650Z,23.67
2018-06-03T09:35:57.650Z,23.59
2018-06-03T09:36:57.658Z,23.57
2018-06-03T09:37:57.140Z,23.41
2018-06-03T09:38:57.657Z,23.26
2018-06-03T09:39:57.670Z,23.32
2018-06-03T09:40:57.397Z,23.24
2018-06-03T09:41:57.887Z,23.28
2018-06-03T09:42:57.414Z,23.14
2018-06-03T09:43:57.414Z,23.14
2018-06-03T09:44:57.683Z,23.12
2018-06-03T09:45:57.150Z,23.15
2018-06-03T09:46:57.409Z,23.16
2018-06-03T09:47:57.700Z,23.21
2018-06-03T09:48:57.877Z,23.25
2018-06-03T09:49:57.412Z,23.38
2018-06-03T09:50:57.676Z,23.35
2018-06-03T09:51:57.673Z,23.37
2018-06-03T09:52:57.417Z,23.47
2018-06-03T09:53:57.159Z,23.6
2018-06-03T09:54:57.678Z,23.66
2018-06-03T09:55:57.420Z,23.81
2018-06-03T09:56:57.690Z,23.79
2018-06-03T09:57:57.682Z,23.82
2018-06-03T09:58:57.423Z,23.92
2018-06-03T09:59:57.452Z,24.03
2018-06-03T10:00:57.427Z,24.19
2018-06-03T10:01:57.433Z,24.36
2018-06-03T10:02:57.431Z,24.55
2018-06-03T10:03:57.691Z,24.74
2018-06-03T10:04:57.729Z,24.86
2018-06-03T10:05:57.175Z,25.07
2018-06-03T10:06:57.697Z,25.17
2018-06-03T10:07:57.703Z,25.37
2018-06-03T10:08:57.703Z,25.49
2018-06-03T10:09:57.703Z,25.45
2018-06-03T10:10:57.730Z,25.38
2018-06-03T10:11:57.193Z,25.22
2018-06-03T10:12:57.717Z,25.09
2018-06-03T10:13:57.710Z,24.93
2018-06-03T10:14:57.196Z,24.55
2018-06-03T10:15:57.732Z,24.34
2018-06-03T10:16:57.724Z,24.24
2018-06-03T10:17:57.717Z,24.03
2018-06-03T10:18:57.464Z,23.78
2018-06-03T10:19:57.725Z,23.64
2018-06-03T10:20:57.724Z,23.52
2018-06-03T10:21:57.469Z,23.42
2018-06-03T10:22:57.736Z,23.38
2018-06-03T10:23:57.795Z,23.14
2018-06-03T10:24:57.731Z,23
2018-06-03T10:25:57.217Z,22.94
2018-06-03T10:26:57.814Z,22.91
2018-06-03T10:27:57.744Z,22.81
2018-06-03T10:28:57.483Z,23
2018-06-03T10:29:57.428Z,23.24
2018-06-03T10:30:57.762Z,23.48
2018-06-03T10:31:57.762Z,23.67
2018-06-03T10:32:57.488Z,23.79
2018-06-03T10:33:57.490Z,23.87
2018-06-03T10:34:57.753Z,23.89
2018-06-03T10:35:57.770Z,23.81
2018-06-03T10:36:57.497Z,23.92
2018-06-03T10:37:57.497Z,23.87
2018-06-03T10:38:57.772Z,23.89
2018-06-03T10:39:57.772Z,23.9
2018-06-03T10:40:57.763Z,24.07
2018-06-03T10:41:57.524Z,24.36
2018-06-03T10:42:57.782Z,24.48
2018-06-03T10:43:57.574Z,24.54
2018-06-03T10:44:57.511Z,24.52
2018-06-03T10:45:57.508Z,24.56
2018-06-03T10:46:57.771Z,24.4
2018-06-03T10:47:57.510Z,24.34
2018-06-03T10:48:57.778Z,24.33
2018-06-03T10:49:57.514Z,24.29
2018-06-03T10:50:57.774Z,24.26
2018-06-03T10:51:57.516Z,24.18
2018-06-03T10:52:57.777Z,24.19
2018-06-03T10:53:57.784Z,24.12
2018-06-03T10:54:57.521Z,24.24
2018-06-03T10:55:57.522Z,24.33
2018-06-03T10:56:57.529Z,24.32
2018-06-03T10:57:57.545Z,24.3
2018-06-03T10:58:57.528Z,24.36
2018-06-03T10:59:57.949Z,24.36
2018-06-03T11:00:57.530Z,24.29
2018-06-03T11:01:57.793Z,24.3
2018-06-03T11:02:57.539Z,24.33
2018-06-03T11:03:57.537Z,24.36
2018-06-03T11:04:57.537Z,24.3
2018-06-03T11:05:57.804Z,24.36
2018-06-03T11:06:57.540Z,24.34
2018-06-03T11:07:57.547Z,24.3
2018-06-03T11:08:57.820Z,24.27
2018-06-03T11:09:57.827Z,24.24
2018-06-03T11:10:57.815Z,24.3
2018-06-03T11:11:57.805Z,24.37
2018-06-03T11:12:57.811Z,24.46
2018-06-03T11:13:57.817Z,24.55
2018-06-03T11:14:57.554Z,24.71
2018-06-03T11:15:57.817Z,24.66
2018-06-03T11:16:57.816Z,24.55
2018-06-03T11:17:57.817Z,24.34
2018-06-03T11:18:57.851Z,24.26
2018-06-03T11:19:57.561Z,24.03
2018-06-03T11:20:57.566Z,23.93
2018-06-03T11:21:57.829Z,23.75
2018-06-03T11:22:57.310Z,23.82
2018-06-03T11:23:57.576Z,23.87
2018-06-03T11:24:57.573Z,24.22
2018-06-03T11:25:57.595Z,24.22
2018-06-03T11:26:57.586Z,24.44
2018-06-03T11:27:57.837Z,24.49
2018-06-03T11:28:57.609Z,24.56
2018-06-03T11:29:57.587Z,24.61
2018-06-03T11:30:57.592Z,24.49
2018-06-03T11:31:57.847Z,24.46
2018-06-03T11:32:57.872Z,24.33
2018-06-03T11:33:57.879Z,24.24
2018-06-03T11:34:57.596Z,24.11
2018-06-03T11:35:57.871Z,23.89
2018-06-03T11:36:57.615Z,23.77
2018-06-03T11:37:57.599Z,23.5
2018-06-03T11:38:57.858Z,23.25
2018-06-03T11:39:57.601Z,23.28
2018-06-03T11:40:57.610Z,23.25
2018-06-03T11:41:57.962Z,23.35
2018-06-03T11:42:57.358Z,23.38
2018-06-03T11:43:57.883Z,23.34
2018-06-03T11:44:57.871Z,23.24
2018-06-03T11:45:57.904Z,23.29
2018-06-03T11:46:57.892Z,23.29
2018-06-03T11:47:57.872Z,23.4
2018-06-03T11:48:57.617Z,23.47
2018-06-03T11:49:57.879Z,23.5
2018-06-03T11:50:57.880Z,23.56
2018-06-03T11:51:57.618Z,23.47
2018-06-03T11:52:57.624Z,23.53
2018-06-03T11:53:57.749Z,23.59
2018-06-03T11:54:57.882Z,23.67
2018-06-03T11:55:57.622Z,23.78
2018-06-03T11:56:57.894Z,23.75
2018-06-03T11:57:57.887Z,23.67
2018-06-03T11:58:57.895Z,23.72
2018-06-03T11:59:57.896Z,23.78
2018-06-03T12:00:57.634Z,23.71
2018-06-03T12:01:57.978Z,23.75
2018-06-03T12:02:57.636Z,23.56
2018-06-03T12:03:57.651Z,23.5
2018-06-03T12:04:57.640Z,23.56
2018-06-03T12:05:57.646Z,23.42
2018-06-03T12:06:57.906Z,23.53
2018-06-03T12:07:57.385Z,23.62
2018-06-03T12:08:57.905Z,23.63
2018-06-03T12:09:57.903Z,23.77
2018-06-03T12:10:57.393Z,23.89
2018-06-03T12:11:57.910Z,23.79
2018-06-03T12:12:57.911Z,23.72
2018-06-03T12:13:57.932Z,23.78
2018-06-03T12:14:57.917Z,23.79
2018-06-03T12:15:57.672Z,23.84
2018-06-03T12:16:57.913Z,23.84
2018-06-03T12:17:57.951Z,23.9
2018-06-03T12:18:57.654Z,23.99
2018-06-03T12:19:57.401Z,23.9
2018-06-03T12:20:57.403Z,23.79
2018-06-03T12:21:57.943Z,23.59
2018-06-03T12:22:57.666Z,23.52
2018-06-03T12:23:57.920Z,23.42
2018-06-03T12:24:57.921Z,23.42
2018-06-03T12:25:57.666Z,23.29
2018-06-03T12:26:57.836Z,23.35
2018-06-03T12:27:57.937Z,23.35
2018-06-03T12:28:57.422Z,23.35
2018-06-03T12:29:57.929Z,23.44
2018-06-03T12:30:57.934Z,23.56
2018-06-03T12:31:57.932Z,23.55
2018-06-03T12:32:57.429Z,23.52
2018-06-03T12:33:57.693Z,23.45
2018-06-03T12:34:57.937Z,23.41
2018-06-03T12:35:57.972Z,23.19
2018-06-03T12:36:57.942Z,23
2018-06-03T12:37:57.423Z,22.89
2018-06-03T12:38:57.945Z,22.76
2018-06-03T12:39:57.944Z,22.61
2018-06-03T12:40:57.688Z,22.51
2018-06-03T12:41:58.068Z,22.45
2018-06-03T12:42:57.706Z,22.34
2018-06-03T12:43:57.686Z,22.3
2018-06-03T12:44:57.948Z,22.3
2018-06-03T12:45:57.953Z,22.26
2018-06-03T12:46:57.689Z,22.14
2018-06-03T12:47:57.692Z,22.16
2018-06-03T12:48:57.435Z,22.26
2018-06-03T12:49:57.972Z,22.29
2018-06-03T12:50:57.449Z,22.51
2018-06-03T12:51:57.769Z,22.59
2018-06-03T12:52:57.956Z,22.6
2018-06-03T12:53:57.963Z,22.64
2018-06-03T12:54:57.701Z,22.84
2018-06-03T12:55:57.707Z,22.91